Aérodrome :
LOGIN :

S'inscrire | Disclaimer

   EN    FR    IT 

 










Légende :    VFR   VFR Marginal   IFR   IFR Intensif   IFR Très Intensif
Visi : 
Plafond : 
>= 8 km
>= 3000ft
5 à 8 km
1000 à 3000 ft
1500m à 5 km
500 à 1000 ft
800 à 1500m
200 à 500 ft
< 800m
< 200 ft
Symboles :   Orages  Brouillard  Fortes neiges  Fortes précipitations  Vent > 20 kt
SIGMETs :   Divers  Orages  Givrage  Turbulence  Onde Orograph.  Cendres Volcan.







- Altitude de l'aérodrome : 412 ft
- Code IATA : ORE
- Voir les cartes d'approche


LFOJ - Orleans

DERNIER METAR :
  • 280630Z AUTO 23007KT 4000 -RA BR FEW006 SCT035 BKN042 17/16 Q1000 BECMG 9999 NSW SCT035TCU

METARs EXPIRÉS :
  • 280600Z AUTO 23010KT 8000 BKN006 BKN013 OVC042 17/16 Q1000 TEMPO 4900 -SHRA
  • 280530Z AUTO 22008KT 190V250 9000 BKN006 BKN010 OVC066 17/16 Q1000 TEMPO 4900 -SHRA
  • 280500Z AUTO 25008KT 9999 SCT007 BKN047 OVC074 17/16 Q1000 TEMPO 4000 -SHRA BKN035TCU
  • 280430Z AUTO 24009KT 9999 SCT008 BKN046 OVC072 17/16 Q1000 TEMPO 4000 -SHRA BKN035TCU
  • 280400Z AUTO 24008KT 9999 SCT007 BKN011 BKN017 17/16 Q1000 TEMPO 4000 -SHRA BKN035TCU

TAF AMD TAF LFOJ
Valide du 28 à 05h jusqu'au 29 à 03h UTC


280505Z 2805/2903 23010KT 9999 FEW007 SCT015 BKN040
TEMPO 2805/2808 4900 -SHRA BKN005 BKN010 BKN040
BECMG 2808/2810 SCT035TCU
PROB40
TEMPO 2812/2820 22016G27KT 3000 SHRA FEW012 BKN025TCU
PROB30
TEMPO 2822/2903 2000 -TSRA BKN009 BKN020CB
Pas de NOTAMs connus pour ce terrain.



MET'MAP, la Météo Aéronautique d'un coup d'oeil ! - Copyright ORBIFLY Décembre 2007 - Disclaimer

ORBIFLY MET'MAP TEAM :

Programmation & Développement : Alexandra Zaïnal
Conception & Développement : Baudouin d'Aumeries
Co-Programmation & Développement : Marc-Olivier Méhu
Soutien technique & logistique : Manuel Goepfert

Contact : metmap@orbifly.com




SOURCES & CREDITS :

   NOAA